createdAt,value
2023-03-19T00:03:12.035Z,100827.66
2023-03-19T00:08:17.580Z,100824.19
2023-03-19T00:13:23.558Z,100821.11
2023-03-19T00:18:28.932Z,100822.63
2023-03-19T00:23:34.944Z,100815.21
2023-03-19T00:28:40.745Z,100812.09
2023-03-19T00:33:46.439Z,100806.21
2023-03-19T00:38:52.329Z,100809.83
2023-03-19T00:43:58.662Z,100806.71
2023-03-19T00:49:04.171Z,100807.88
2023-03-19T00:54:09.761Z,100804.23
2023-03-19T00:59:15.454Z,100799.57
2023-03-19T01:04:23.459Z,100796.77
2023-03-19T01:09:29.260Z,100799.17
2023-03-19T01:14:34.989Z,100796.89
2023-03-19T01:19:40.869Z,100804.75
2023-03-19T01:24:47.049Z,100802.84
2023-03-19T01:29:53.247Z,100804.34
2023-03-19T01:35:14.267Z,100813.61
2023-03-19T01:40:21.157Z,100816.70
2023-03-19T01:45:37.207Z,100818.55
2023-03-19T01:51:01.505Z,100819.27
2023-03-19T01:56:28.653Z,100816.35
2023-03-19T02:01:57.294Z,100814.27
2023-03-19T02:07:04.191Z,100813.25
2023-03-19T02:12:11.917Z,100815.29
2023-03-19T02:17:17.672Z,100812.19
2023-03-19T02:22:26.765Z,100810.10
2023-03-19T02:27:32.879Z,100804.04
2023-03-19T02:32:38.267Z,100797.66
2023-03-19T02:37:43.967Z,100800.88
2023-03-19T02:42:49.462Z,100809.77
2023-03-19T02:47:54.896Z,100819.05
2023-03-19T02:53:00.687Z,100821.25
2023-03-19T02:58:06.243Z,100825.88
2023-03-19T03:03:12.422Z,100826.19
2023-03-19T03:08:18.614Z,100825.83
2023-03-19T03:13:24.239Z,100826.52
2023-03-19T03:18:30.037Z,100824.45
2023-03-19T03:23:35.514Z,100824.93
2023-03-19T03:28:41.220Z,100819.20
2023-03-19T03:33:46.827Z,100819.02
2023-03-19T03:38:52.934Z,100818.48
2023-03-19T03:43:58.541Z,100822.95
2023-03-19T03:49:04.491Z,100817.41
2023-03-19T03:54:11.061Z,100815.34
2023-03-19T03:59:16.963Z,100808.63
2023-03-19T04:04:22.618Z,100805.34
2023-03-19T04:09:28.182Z,100802.40
2023-03-19T04:14:33.778Z,100802.67
2023-03-19T04:19:39.414Z,100808.13
2023-03-19T04:24:45.317Z,100806.34
2023-03-19T04:29:51.207Z,100805.25
2023-03-19T04:34:58.554Z,100801.55
2023-03-19T04:40:04.742Z,100796.46
2023-03-19T04:45:12.698Z,100796.90
2023-03-19T04:50:19.096Z,100799.41
2023-03-19T04:55:25.156Z,100798.88
2023-03-19T05:00:38.182Z,100799.71
2023-03-19T05:05:45.258Z,100798.68
2023-03-19T05:10:51.347Z,100801.48
2023-03-19T05:15:57.477Z,100809.45
2023-03-19T05:21:04.837Z,100811.92
2023-03-19T05:26:12.208Z,100815.30
2023-03-19T05:31:45.450Z,100824.86
2023-03-19T05:36:51.857Z,100826.70
2023-03-19T05:41:57.821Z,100829.05
2023-03-19T05:47:08.801Z,100822.47
2023-03-19T05:52:15.643Z,100818.35
2023-03-19T05:57:21.952Z,100817.66
2023-03-19T06:02:32.480Z,100814.55
2023-03-19T06:08:13.454Z,100818.13
2023-03-19T06:13:43.342Z,100816.27
2023-03-19T06:18:53.284Z,100819.09
2023-03-19T06:23:59.112Z,100821.65
2023-03-19T06:29:09.592Z,100821.09
2023-03-19T06:34:16.211Z,100823.14
2023-03-19T06:39:22.907Z,100822.57
2023-03-19T06:44:29.089Z,100818.34
2023-03-19T06:49:35.206Z,100816.17
2023-03-19T06:54:41.199Z,100815.30
2023-03-19T06:59:46.794Z,100813.30
2023-03-19T07:04:52.466Z,100817.16
2023-03-19T07:09:58.313Z,100814.13
2023-03-19T07:15:04.862Z,100812.52
2023-03-19T07:20:13.559Z,100812.36
2023-03-19T07:25:19.500Z,100815.36
2023-03-19T07:30:25.518Z,100817.73
2023-03-19T07:35:32.157Z,100822.35
2023-03-19T07:40:40.053Z,100821.60
2023-03-19T07:45:49.308Z,100824.66
2023-03-19T07:50:55.392Z,100820.46
2023-03-19T07:56:00.853Z,100816.86
2023-03-19T08:01:07.406Z,100814.11
2023-03-19T08:06:13.231Z,100810.59
2023-03-19T08:11:19.043Z,100809.09
2023-03-19T08:16:25.709Z,100814.59
2023-03-19T08:21:34.416Z,100810.73
2023-03-19T08:26:42.227Z,100809.31
2023-03-19T08:31:47.795Z,100807.38
2023-03-19T08:36:53.247Z,100810.77
2023-03-19T08:41:58.729Z,100809.73
2023-03-19T08:47:04.897Z,100808.48
2023-03-19T08:52:11.111Z,100804.46
2023-03-19T08:57:17.224Z,100808.13
2023-03-19T09:02:22.745Z,100808.70
2023-03-19T09:07:29.025Z,100809.23
2023-03-19T09:12:34.959Z,100807.47
2023-03-19T09:17:40.382Z,100804.79
2023-03-19T09:22:46.125Z,100808.36
2023-03-19T09:27:51.890Z,100809.59
2023-03-19T09:32:57.315Z,100806.58
2023-03-19T09:38:03.125Z,100804.16
2023-03-19T09:43:27.878Z,100797.13
2023-03-19T09:48:39.313Z,100792.63
2023-03-19T09:53:52.754Z,100790.05
2023-03-19T09:58:58.625Z,100785.81
2023-03-19T10:04:30.858Z,100783.86
2023-03-19T10:09:47.986Z,100775.86
2023-03-19T10:15:10.118Z,100781.71
2023-03-19T10:20:25.483Z,100783.09
2023-03-19T10:25:34.034Z,100783.65
2023-03-19T10:30:41.615Z,100774.64
2023-03-19T10:35:55.602Z,100768.75
2023-03-19T10:41:18.988Z,100770.23
2023-03-19T10:46:24.765Z,100770.09
2023-03-19T10:51:31.315Z,100770.02
2023-03-19T10:56:45.978Z,100775.73
2023-03-19T11:01:55.680Z,100772.14
2023-03-19T11:07:11.840Z,100763.31
2023-03-19T11:12:22.968Z,100756.84
2023-03-19T11:17:36.859Z,100756.33
2023-03-19T11:22:42.913Z,100750.16
2023-03-19T11:28:01.293Z,100738.13
2023-03-19T11:33:38.376Z,100730.44
2023-03-19T11:38:58.661Z,100717.45
2023-03-19T11:44:12.977Z,100712.35
2023-03-19T11:49:31.701Z,100705.27
2023-03-19T11:54:48.664Z,100702.73
2023-03-19T12:00:08.125Z,100700.45
2023-03-19T12:05:29.257Z,100691.74
2023-03-19T12:10:55.579Z,100692.98
2023-03-19T12:16:10.291Z,100686.99
2023-03-19T12:21:23.679Z,100692.96
2023-03-19T12:26:44.080Z,100688.52
2023-03-19T12:32:13.717Z,100693.08
2023-03-19T12:37:27.204Z,100684.61
2023-03-19T12:42:38.941Z,100684.59
2023-03-19T12:47:46.587Z,100690.61
2023-03-19T12:52:58.146Z,100683.40
2023-03-19T12:58:08.440Z,100679.41
2023-03-19T13:03:22.419Z,100675.05
2023-03-19T13:08:34.197Z,100666.92
2023-03-19T13:13:48.585Z,100660.55
2023-03-19T13:19:04.418Z,100658.70
2023-03-19T13:24:19.281Z,100652.50
2023-03-19T13:29:27.018Z,100648.73
2023-03-19T13:34:34.812Z,100650.17
2023-03-19T13:39:42.203Z,100644.70
2023-03-19T13:44:57.118Z,100648.56
2023-03-19T13:50:22.441Z,100639.50
2023-03-19T13:55:34.344Z,100638.70
2023-03-19T14:01:01.944Z,100642.63
2023-03-19T14:06:36.592Z,100644.11
2023-03-19T14:11:42.381Z,100637.23
2023-03-19T14:16:50.737Z,100631.69
2023-03-19T14:22:17.160Z,100636.61
2023-03-19T14:27:30.678Z,100632.64
2023-03-19T14:32:41.939Z,100628.41
2023-03-19T14:37:50.327Z,100623.19
2023-03-19T14:43:03.092Z,100623.64
2023-03-19T14:48:21.229Z,100623.55
2023-03-19T14:53:41.484Z,100629.88
2023-03-19T14:58:56.123Z,100629.65
2023-03-19T15:04:08.960Z,100635.05
2023-03-19T15:09:21.000Z,100626.09
2023-03-19T15:14:42.481Z,100610.88
2023-03-19T15:19:48.400Z,100613.86
2023-03-19T15:24:54.518Z,100613.59
2023-03-19T15:30:12.836Z,100610.77
2023-03-19T15:35:23.093Z,100612.39
2023-03-19T15:40:31.434Z,100613.13
2023-03-19T15:45:37.639Z,100608.69
2023-03-19T15:50:46.681Z,100613.10
2023-03-19T15:55:54.246Z,100619.52
2023-03-19T16:01:01.166Z,100624.65
2023-03-19T16:06:13.272Z,100631.43
2023-03-19T16:11:28.609Z,100629.54
2023-03-19T16:16:34.990Z,100632.42
2023-03-19T16:21:43.227Z,100637.34
2023-03-19T16:26:49.694Z,100638.19
2023-03-19T16:31:59.369Z,100650.52
2023-03-19T16:37:28.771Z,100651.01
2023-03-19T16:42:40.512Z,100655.56
2023-03-19T16:47:48.624Z,100652.63
2023-03-19T16:52:54.147Z,100660.77
2023-03-19T16:58:02.078Z,100664.23
2023-03-19T17:03:13.195Z,100671.20
2023-03-19T17:08:17.475Z,100675.02
2023-03-19T17:13:29.564Z,100677.36
2023-03-19T17:18:36.675Z,100684.27
2023-03-19T17:23:45.262Z,100682.83
2023-03-19T17:28:51.522Z,100682.09
2023-03-19T17:34:01.020Z,100684.03
2023-03-19T17:39:07.695Z,100684.67
2023-03-19T17:44:14.703Z,100682.20
2023-03-19T17:49:23.602Z,100678.84
2023-03-19T17:54:29.425Z,100676.15
2023-03-19T17:59:34.870Z,100669.29
2023-03-19T18:04:41.130Z,100669.77
2023-03-19T18:09:46.726Z,100674.51
2023-03-19T18:14:52.283Z,100666.93
2023-03-19T18:19:57.948Z,100661.40
2023-03-19T18:25:03.801Z,100664.65
2023-03-19T18:30:13.402Z,100657.52
2023-03-19T18:35:22.226Z,100662.73
2023-03-19T18:40:29.425Z,100665.05
2023-03-19T18:45:35.668Z,100663.75
2023-03-19T18:50:41.926Z,100661.94
2023-03-19T18:55:47.830Z,100663.59
2023-03-19T19:00:53.471Z,100660.89
2023-03-19T19:06:00.135Z,100659.53
2023-03-19T19:11:07.786Z,100666.73
2023-03-19T19:16:19.061Z,100665.45
2023-03-19T19:21:23.361Z,100670.91
2023-03-19T19:26:31.025Z,100670.87
2023-03-19T19:31:37.290Z,100668.52
2023-03-19T19:36:43.583Z,100669.45
2023-03-19T19:41:49.197Z,100675.41
2023-03-19T19:46:55.893Z,100674.59
2023-03-19T19:52:01.572Z,100669.45
2023-03-19T19:57:18.431Z,100670.69
2023-03-19T20:02:26.210Z,100672.83
2023-03-19T20:07:31.668Z,100672.17
2023-03-19T20:12:37.131Z,100672.58
2023-03-19T20:17:42.643Z,100677.66
2023-03-19T20:22:49.712Z,100675.98
2023-03-19T20:27:58.306Z,100675.00
2023-03-19T20:33:04.682Z,100669.50
2023-03-19T20:38:11.746Z,100667.11
2023-03-19T20:43:28.219Z,100666.79
2023-03-19T20:48:34.554Z,100664.75
2023-03-19T20:53:40.022Z,100662.52
2023-03-19T20:58:46.546Z,100661.50
2023-03-19T21:03:53.461Z,100656.53
2023-03-19T21:09:02.038Z,100653.96
2023-03-19T21:14:13.623Z,100660.89
2023-03-19T21:19:19.058Z,100659.52
2023-03-19T21:24:26.012Z,100662.46
2023-03-19T21:29:33.478Z,100666.77
2023-03-19T21:34:38.891Z,100668.52
2023-03-19T21:39:44.872Z,100668.66
2023-03-19T21:44:56.938Z,100663.83
2023-03-19T21:50:02.465Z,100663.13
2023-03-19T21:55:09.558Z,100656.76
2023-03-19T22:00:17.986Z,100649.19
2023-03-19T22:05:26.541Z,100650.55
2023-03-19T22:10:31.987Z,100649.66
2023-03-19T22:15:38.387Z,100649.84
2023-03-19T22:20:44.746Z,100648.95
2023-03-19T22:25:52.892Z,100648.11
2023-03-19T22:30:58.838Z,100648.14
2023-03-19T22:36:04.462Z,100644.71
2023-03-19T22:41:15.959Z,100640.75
2023-03-19T22:46:22.779Z,100637.82
2023-03-19T22:51:28.828Z,100636.42
2023-03-19T22:56:34.461Z,100635.03
2023-03-19T23:01:43.447Z,100628.82
2023-03-19T23:06:49.578Z,100633.13
2023-03-19T23:11:55.246Z,100630.71
2023-03-19T23:17:06.786Z,100631.59
2023-03-19T23:22:16.808Z,100631.44
2023-03-19T23:27:26.209Z,100631.61
2023-03-19T23:32:31.846Z,100631.45
2023-03-19T23:37:37.973Z,100621.80
2023-03-19T23:42:49.952Z,100616.63
2023-03-19T23:47:57.965Z,100613.70
2023-03-19T23:53:03.467Z,100611.44
2023-03-19T23:58:09.412Z,100612.98
